Time;durP1;ratioP1;P1;durP2;ratioP2;P2;SDS_P1;SDS_P2;PMS_P1;PMS_P2;Temp;Humidity;BMP_temperature;BMP_pressure;BME280_temperature;BME280_humidity;BME280_pressure;Samples;Min_cycle;Max_cycle;Signal;HPM_P1;HPM_P2
2023/12/07 00:00:04;;;;;;;11.70;6.95;;;;;;;0.84;92.02;102014.00;5091371;28;20044;-70
2023/12/07 00:02:30;;;;;;;10.32;6.90;;;;;;;0.77;92.40;102006.59;5090634;28;20036;-70
2023/12/07 00:04:55;;;;;;;10.57;7.03;;;;;;;0.68;92.99;101995.66;5091900;28;20028;-70
2023/12/07 00:07:21;;;;;;;9.85;6.93;;;;;;;0.69;92.78;101997.34;5090664;28;20024;-70
2023/12/07 00:09:46;;;;;;;10.23;6.85;;;;;;;0.72;92.86;101991.00;5073728;28;20059;-70
2023/12/07 00:12:11;;;;;;;11.90;7.63;;;;;;;0.59;93.48;101987.50;5091559;28;20044;-69
2023/12/07 00:14:37;;;;;;;10.25;6.72;;;;;;;0.78;92.98;101995.88;5073713;28;20119;-70
2023/12/07 00:17:02;;;;;;;9.77;6.80;;;;;;;0.76;92.98;101992.47;5090090;28;20028;-69
2023/12/07 00:19:27;;;;;;;8.88;6.30;;;;;;;0.62;93.16;101997.88;5091411;28;20039;-70
2023/12/07 00:21:53;;;;;;;10.02;6.68;;;;;;;0.42;93.86;101981.53;5073031;28;20062;-70
2023/12/07 00:24:18;;;;;;;9.30;6.30;;;;;;;0.74;92.39;102002.34;5073421;28;20044;-70
2023/12/07 00:26:44;;;;;;;9.60;6.90;;;;;;;0.61;93.09;101985.59;5092061;28;20030;-69
2023/12/07 00:29:09;;;;;;;9.77;7.20;;;;;;;0.78;92.70;101998.53;5091177;28;20036;-70
2023/12/07 00:31:34;;;;;;;9.32;6.90;;;;;;;0.66;93.22;101991.41;5090057;28;20024;-70
2023/12/07 00:34:00;;;;;;;10.00;6.63;;;;;;;0.66;93.14;101997.59;5090854;28;20063;-71
2023/12/07 00:36:26;;;;;;;11.32;7.60;;;;;;;0.82;92.17;101994.69;5091259;28;20076;-71
2023/12/07 00:38:51;;;;;;;11.25;7.68;;;;;;;0.73;92.53;101997.13;5090564;28;20096;-70
2023/12/07 00:41:17;;;;;;;10.88;6.90;;;;;;;0.61;93.13;101990.91;5072740;28;20032;-71
2023/12/07 00:43:42;;;;;;;9.35;7.00;;;;;;;0.83;91.99;101995.53;5089521;28;20103;-70
2023/12/07 00:46:08;;;;;;;10.27;6.38;;;;;;;0.79;91.42;102000.22;5090455;28;20390;-70
2023/12/07 00:48:33;;;;;;;9.48;6.72;;;;;;;0.73;91.94;101992.72;5089826;28;20107;-70
2023/12/07 00:50:58;;;;;;;9.77;7.07;;;;;;;0.81;91.40;102006.25;5089419;28;20483;-71
2023/12/07 00:53:24;;;;;;;12.30;6.35;;;;;;;0.64;91.61;102004.78;5090567;28;20036;-71
2023/12/07 00:55:49;;;;;;;10.95;7.20;;;;;;;0.85;91.46;102001.59;5089655;28;20040;-70
2023/12/07 00:58:14;;;;;;;8.63;6.40;;;;;;;0.61;91.32;101986.44;5090671;28;20114;-70
2023/12/07 01:00:40;;;;;;;9.55;6.97;;;;;;;0.47;91.24;101937.06;5072696;28;20032;-70
2023/12/07 01:03:07;;;;;;;7.60;5.75;;;;;;;0.54;91.49;101990.47;5089625;28;20075;-70
2023/12/07 01:05:32;;;;;;;9.38;6.93;;;;;;;0.62;91.63;101987.28;5072945;28;20439;-71
2023/12/07 01:07:57;;;;;;;8.93;6.25;;;;;;;0.53;91.81;101990.56;5072284;28;20036;-70
2023/12/07 01:10:23;;;;;;;9.25;6.82;;;;;;;0.81;91.09;101989.53;5072791;28;20028;-70
2023/12/07 01:12:49;;;;;;;8.55;6.47;;;;;;;0.73;91.14;101998.00;5090164;28;20119;-71
2023/12/07 01:15:14;;;;;;;9.20;6.78;;;;;;;0.71;91.26;101997.25;5090959;28;20058;-69
2023/12/07 01:17:40;;;;;;;10.27;7.53;;;;;;;0.78;90.92;101995.88;5090032;28;20047;-71
2023/12/07 01:20:12;;;;;;;9.30;6.20;;;;;;;0.70;90.88;102001.72;5087297;28;20039;-71
2023/12/07 01:22:39;;;;;;;8.98;6.78;;;;;;;0.77;91.04;101998.63;5089084;28;20034;-71
2023/12/07 01:25:05;;;;;;;9.50;6.70;;;;;;;0.67;91.26;102001.06;5070109;28;20032;-70
2023/12/07 01:27:31;;;;;;;10.38;6.20;;;;;;;0.83;90.84;102006.13;5088602;28;20119;-71
2023/12/07 01:29:57;;;;;;;10.48;6.97;;;;;;;0.84;90.20;102010.50;5088752;28;20031;-70
2023/12/07 01:32:22;;;;;;;10.45;6.40;;;;;;;0.47;91.78;102005.94;5088954;28;20035;-70
2023/12/07 01:34:47;;;;;;;9.13;6.25;;;;;;;0.55;91.62;101993.97;5093096;28;20040;-71
2023/12/07 01:37:13;;;;;;;8.07;5.90;;;;;;;0.64;91.55;101993.34;5093287;28;20032;-70
2023/12/07 01:39:38;;;;;;;8.05;5.93;;;;;;;0.74;90.70;101997.03;5092723;28;20469;-72
2023/12/07 01:42:04;;;;;;;8.50;6.45;;;;;;;0.66;90.97;101997.59;5092857;28;20407;-70
2023/12/07 01:44:29;;;;;;;7.75;5.18;;;;;;;0.39;91.58;101994.16;5092761;28;20032;-71
2023/12/07 01:46:55;;;;;;;9.90;5.95;;;;;;;0.42;92.16;101997.44;5094099;28;20108;-70
2023/12/07 01:49:20;;;;;;;9.02;5.38;;;;;;;0.34;93.04;101996.28;5093099;28;20086;-70
2023/12/07 01:51:46;;;;;;;8.18;5.65;;;;;;;0.43;92.94;102007.09;5092640;28;20027;-70
2023/12/07 01:54:12;;;;;;;7.80;5.60;;;;;;;0.47;92.80;102005.94;5093304;28;20047;-70
2023/12/07 01:56:37;;;;;;;11.40;6.80;;;;;;;0.84;90.67;102006.06;5093336;28;20069;-71
2023/12/07 01:59:03;;;;;;;10.30;6.05;;;;;;;0.65;90.73;102005.63;5093925;28;20642;-71
2023/12/07 02:01:29;;;;;;;10.40;6.22;;;;;;;0.42;91.00;101967.47;5076440;28;19920;-71
2023/12/07 02:03:54;;;;;;;7.13;5.35;;;;;;;0.53;90.76;102001.16;5093967;28;20035;-71
2023/12/07 02:06:20;;;;;;;7.35;5.25;;;;;;;0.29;92.23;102004.50;5075831;28;20032;-70
2023/12/07 02:08:46;;;;;;;9.10;5.85;;;;;;;0.52;91.04;102008.25;5093757;28;20394;-70
2023/12/07 02:11:11;;;;;;;7.28;5.65;;;;;;;0.46;91.02;101983.06;5093298;28;20057;-71
2023/12/07 02:13:38;;;;;;;8.23;6.10;;;;;;;0.44;91.59;102008.78;5093646;28;20028;-70
2023/12/07 02:16:14;;;;;;;8.75;5.13;;;;;;;0.46;91.57;102006.00;5092607;28;20375;-71
2023/12/07 02:19:25;;;;;;;8.23;5.53;;;;;;;0.55;91.03;101997.44;5092513;28;20133;-70
2023/12/07 02:21:59;;;;;;;6.50;4.95;;;;;;;0.43;91.30;101999.16;5031145;28;20037;-71
2023/12/07 02:24:27;;;;;;;7.03;5.15;;;;;;;0.47;90.94;101991.84;5086066;28;20039;-71
2023/12/07 02:26:52;;;;;;;6.68;4.80;;;;;;;0.50;91.20;101990.75;5093745;28;20522;-71
2023/12/07 02:29:17;;;;;;;8.60;5.60;;;;;;;0.33;92.09;101984.84;5092204;28;20032;-70
2023/12/07 02:31:43;;;;;;;8.00;4.60;;;;;;;0.46;91.28;101996.31;5092316;28;20024;-70
2023/12/07 02:34:09;;;;;;;6.88;5.18;;;;;;;0.37;91.62;101990.78;5092008;28;20437;-70
2023/12/07 02:36:38;;;;;;;9.10;5.50;;;;;;;0.42;91.68;101993.94;5091924;28;20495;-71
2023/12/07 02:39:05;;;;;;;7.10;5.03;;;;;;;0.34;91.83;101996.28;5092067;28;20024;-70
2023/12/07 02:41:32;;;;;;;6.53;4.70;;;;;;;0.51;90.56;101990.69;5093452;28;20058;-70
2023/12/07 02:43:58;;;;;;;6.75;4.68;;;;;;;0.56;90.19;101995.66;5093417;28;20036;-71
2023/12/07 02:46:26;;;;;;;7.90;4.80;;;;;;;0.48;90.09;101988.22;5091160;28;20490;-71
2023/12/07 02:48:51;;;;;;;5.70;4.30;;;;;;;0.07;91.80;101961.94;5075166;28;20039;-70
2023/12/07 02:51:17;;;;;;;7.30;5.22;;;;;;;0.34;91.67;101983.88;5092134;28;20390;-71
2023/12/07 02:53:42;;;;;;;7.13;4.85;;;;;;;0.37;90.88;101959.00;5092016;28;20031;-71
2023/12/07 02:56:08;;;;;;;7.88;5.15;;;;;;;0.44;90.11;101966.41;5091913;28;20089;-70
2023/12/07 02:58:33;;;;;;;6.63;5.07;;;;;;;0.53;90.40;101990.56;5091675;28;20055;-71
2023/12/07 03:00:59;;;;;;;8.23;5.28;;;;;;;0.67;89.63;101995.78;5091908;28;20028;-70
2023/12/07 03:03:24;;;;;;;10.20;5.15;;;;;;;0.70;89.49;101999.06;5074810;28;20093;-70
2023/12/07 03:05:50;;;;;;;7.90;4.32;;;;;;;0.49;89.91;102003.16;5093490;28;20027;-70
2023/12/07 03:08:15;;;;;;;6.75;4.53;;;;;;;0.29;90.30;101974.53;5091556;28;20075;-70
2023/12/07 03:10:41;;;;;;;7.38;4.85;;;;;;;0.34;90.30;101991.81;5092618;28;20031;-70
2023/12/07 03:13:06;;;;;;;7.47;4.07;;;;;;;0.21;90.79;101975.06;5092383;28;20023;-71
2023/12/07 03:15:31;;;;;;;5.30;4.05;;;;;;;0.17;91.87;102000.91;5074277;28;20032;-70
2023/12/07 03:17:57;;;;;;;5.35;4.18;;;;;;;0.09;92.19;101999.69;5092560;28;20032;-70
2023/12/07 03:20:23;;;;;;;5.82;3.88;;;;;;;0.12;91.66;101971.22;5092362;28;20036;-70
2023/12/07 03:22:49;;;;;;;5.47;3.58;;;;;;;0.43;90.58;101991.22;5091408;28;20473;-70
2023/12/07 03:25:15;;;;;;;7.05;4.43;;;;;;;0.25;90.83;101970.41;5091144;28;20044;-70
2023/12/07 03:27:40;;;;;;;4.88;4.10;;;;;;;0.68;88.68;101989.50;5092242;28;20430;-70
2023/12/07 03:30:06;;;;;;;6.95;3.80;;;;;;;0.27;90.23;101992.34;5091148;28;20027;-70
2023/12/07 03:32:31;;;;;;;6.00;3.75;;;;;;;0.01;91.63;101967.63;5092604;28;20031;-70
2023/12/07 03:34:57;;;;;;;4.60;3.33;;;;;;;-0.02;91.52;101966.88;5092046;28;20032;-70
2023/12/07 03:37:22;;;;;;;5.13;3.40;;;;;;;0.12;91.52;101986.25;5092695;28;20031;-70
2023/12/07 03:39:47;;;;;;;5.72;3.80;;;;;;;0.32;90.90;101996.34;5073977;28;20086;-70
2023/12/07 03:42:13;;;;;;;6.20;4.05;;;;;;;0.27;90.95;101990.53;5074355;28;20066;-70
2023/12/07 03:44:38;;;;;;;4.70;3.83;;;;;;;0.18;91.47;101992.00;5091007;28;20047;-70
2023/12/07 03:47:04;;;;;;;4.82;3.78;;;;;;;0.28;91.01;101975.50;5073816;28;20458;-70
2023/12/07 03:49:29;;;;;;;4.03;3.58;;;;;;;0.36;91.08;101991.69;5092103;28;20089;-70
2023/12/07 03:51:54;;;;;;;3.67;2.83;;;;;;;0.10;91.32;101989.03;5090827;28;20066;-71
2023/12/07 03:54:20;;;;;;;4.07;3.35;;;;;;;0.28;91.31;101994.88;5092049;28;20024;-70
2023/12/07 03:56:45;;;;;;;5.68;3.75;;;;;;;0.38;90.92;101992.47;5091481;28;20059;-70
2023/12/07 03:59:10;;;;;;;5.78;4.00;;;;;;;0.39;90.42;101989.69;5090528;28;20048;-70
2023/12/07 04:01:36;;;;;;;5.28;3.42;;;;;;;0.28;90.75;101996.69;5091503;28;20036;-71
2023/12/07 04:04:01;;;;;;;4.57;3.47;;;;;;;0.34;90.29;101983.88;5091279;28;20089;-70
2023/12/07 04:06:27;;;;;;;6.43;3.60;;;;;;;-0.04;91.65;101974.03;5091735;28;20024;-69
2023/12/07 04:08:52;;;;;;;4.70;3.80;;;;;;;0.19;91.49;102000.78;5090390;28;20479;-70
2023/12/07 04:11:18;;;;;;;4.25;3.25;;;;;;;0.04;91.93;101993.88;5090331;28;20426;-70
2023/12/07 04:13:44;;;;;;;4.75;2.83;;;;;;;0.20;90.86;101994.56;5091076;28;20027;-71
2023/12/07 04:16:10;;;;;;;6.78;4.75;;;;;;;0.68;89.26;102000.13;5091372;28;20421;-70
2023/12/07 04:18:36;;;;;;;5.03;3.35;;;;;;;0.43;89.68;101996.50;5091438;28;20092;-71
2023/12/07 04:21:02;;;;;;;5.82;3.53;;;;;;;0.37;89.63;101996.91;5089848;28;20028;-71
2023/12/07 04:23:27;;;;;;;5.68;4.03;;;;;;;0.59;89.16;102003.38;5073259;28;20521;-70
2023/12/07 04:25:53;;;;;;;5.15;3.90;;;;;;;0.58;88.59;101989.28;5089740;28;20039;-70
2023/12/07 04:28:18;;;;;;;4.28;3.58;;;;;;;0.61;88.06;101989.09;5073465;28;20111;-70
2023/12/07 04:30:43;;;;;;;5.65;4.07;;;;;;;0.65;88.53;101995.03;5090021;28;20074;-70
2023/12/07 04:33:09;;;;;;;6.22;4.25;;;;;;;0.65;88.18;101990.56;5091354;28;20039;-70
2023/12/07 04:35:35;;;;;;;5.18;3.90;;;;;;;0.35;88.79;101969.69;5089974;28;20035;-71
2023/12/07 04:38:01;;;;;;;6.15;3.75;;;;;;;0.56;88.72;101990.34;5091320;28;20433;-70
2023/12/07 04:40:26;;;;;;;6.07;3.92;;;;;;;0.53;89.31;101994.06;5091079;28;20102;-70
2023/12/07 04:42:52;;;;;;;5.10;4.13;;;;;;;0.70;88.36;101996.41;5091548;28;20036;-71
2023/12/07 04:45:17;;;;;;;7.13;4.20;;;;;;;0.41;89.01;101976.38;5091137;28;20066;-71
2023/12/07 04:47:43;;;;;;;5.68;4.22;;;;;;;0.79;88.14;102004.66;5091304;28;20036;-70
2023/12/07 04:50:09;;;;;;;5.70;4.10;;;;;;;0.59;88.06;102011.31;5089709;28;20020;-70
2023/12/07 04:52:35;;;;;;;4.25;3.30;;;;;;;0.33;89.19;101987.50;5089576;28;20024;-71
2023/12/07 04:55:00;;;;;;;5.70;3.67;;;;;;;0.37;90.03;102012.81;5089743;28;20043;-70
2023/12/07 04:57:26;;;;;;;4.63;3.85;;;;;;;0.33;90.20;102006.03;5089251;28;20475;-71
2023/12/07 04:59:51;;;;;;;4.45;3.35;;;;;;;0.37;89.70;102011.97;5088725;28;20048;-71
2023/12/07 05:02:16;;;;;;;6.05;4.43;;;;;;;0.71;89.21;102005.19;5072743;28;20028;-71
2023/12/07 05:04:45;;;;;;;5.20;3.90;;;;;;;0.62;88.57;102011.97;5089565;28;20528;-70
2023/12/07 05:07:14;;;;;;;5.68;4.15;;;;;;;0.48;90.04;102004.13;5090081;28;20390;-71
2023/12/07 05:09:40;;;;;;;5.30;3.58;;;;;;;0.37;89.80;101975.72;5090174;28;20479;-71
2023/12/07 05:12:06;;;;;;;6.78;4.30;;;;;;;0.55;89.44;101994.81;5090868;28;20372;-71
2023/12/07 05:14:32;;;;;;;5.03;3.83;;;;;;;0.41;90.24;101997.56;5072335;28;20108;-70
2023/12/07 05:16:57;;;;;;;4.97;3.80;;;;;;;0.50;89.90;102004.88;5089258;28;20028;-71
2023/12/07 05:19:24;;;;;;;5.97;4.28;;;;;;;0.54;89.50;101998.41;5090689;28;20054;-69
2023/12/07 05:21:49;;;;;;;6.05;4.10;;;;;;;0.72;89.01;102003.41;5090328;28;20123;-70
2023/12/07 05:24:15;;;;;;;5.28;3.75;;;;;;;0.67;88.58;101998.44;5089685;28;20186;-71
2023/12/07 05:26:47;;;;;;;5.18;3.67;;;;;;;0.61;88.64;101991.75;5090862;28;20435;-71
2023/12/07 05:29:13;;;;;;;5.20;3.97;;;;;;;0.52;88.57;101959.75;5090499;28;20395;-69
2023/12/07 05:31:39;;;;;;;5.65;4.38;;;;;;;0.67;88.75;101986.03;5089337;28;20020;-70
2023/12/07 05:34:05;;;;;;;5.10;3.95;;;;;;;0.74;87.99;101967.91;5089128;28;20035;-69
2023/12/07 05:36:31;;;;;;;5.18;3.92;;;;;;;0.70;87.96;102001.72;5090275;28;20027;-71
2023/12/07 05:38:56;;;;;;;5.43;4.05;;;;;;;0.76;88.39;101988.97;5090536;28;20099;-69
2023/12/07 05:41:21;;;;;;;5.05;3.95;;;;;;;0.67;88.45;101993.13;5090420;28;20036;-70
2023/12/07 05:43:47;;;;;;;5.95;4.03;;;;;;;0.63;89.08;101991.63;5090213;28;20024;-71
2023/12/07 05:46:12;;;;;;;5.13;4.15;;;;;;;0.67;88.79;101988.66;5089682;28;20042;-72
2023/12/07 05:48:38;;;;;;;5.32;3.78;;;;;;;0.47;90.04;101981.25;5089100;28;20036;-71
2023/12/07 05:51:03;;;;;;;5.65;3.67;;;;;;;0.61;89.58;101983.78;5088840;28;20117;-71
2023/12/07 05:53:30;;;;;;;5.20;4.38;;;;;;;0.64;89.36;101990.69;5090676;28;20475;-71
2023/12/07 05:55:55;;;;;;;5.68;3.85;;;;;;;0.58;89.13;101980.50;5089000;28;20551;-71
2023/12/07 05:58:20;;;;;;;5.18;4.00;;;;;;;0.72;88.81;101983.03;5089962;28;20064;-70
2023/12/07 06:00:46;;;;;;;4.82;3.75;;;;;;;0.48;88.99;101956.47;5089412;28;20474;-70
2023/12/07 06:03:13;;;;;;;4.43;3.80;;;;;;;0.70;88.71;101985.81;5089394;28;20036;-69
2023/12/07 06:05:38;;;;;;;4.90;3.83;;;;;;;0.53;89.34;101966.72;5089256;28;20104;-72
2023/12/07 06:08:04;;;;;;;5.95;4.35;;;;;;;0.63;89.29;101984.53;5090311;28;20110;-70
2023/12/07 06:10:30;;;;;;;5.15;4.05;;;;;;;0.61;88.82;101981.16;5090845;28;20474;-72
2023/12/07 06:12:56;;;;;;;5.70;3.67;;;;;;;0.52;89.53;101983.56;5089586;28;20542;-72
2023/12/07 06:15:22;;;;;;;4.95;4.07;;;;;;;0.55;90.13;101983.38;5072974;28;20112;-71
2023/12/07 06:17:48;;;;;;;5.45;3.92;;;;;;;0.62;89.75;101988.13;5072195;28;20119;-72
2023/12/07 06:20:13;;;;;;;5.13;4.13;;;;;;;0.79;88.51;101970.22;5074586;28;20491;-73
2023/12/07 06:22:38;;;;;;;5.72;4.40;;;;;;;0.76;88.45;101978.38;5093254;28;20035;-71
2023/12/07 06:25:05;;;;;;;6.10;4.47;;;;;;;0.61;89.55;101982.94;5093354;28;20372;-72
2023/12/07 06:27:30;;;;;;;6.32;4.55;;;;;;;0.76;89.17;101981.03;5092790;28;20032;-72
2023/12/07 06:29:56;;;;;;;5.90;4.03;;;;;;;0.58;89.28;101980.50;5092763;28;20483;-71
2023/12/07 06:32:21;;;;;;;6.22;4.47;;;;;;;0.70;89.24;101979.69;5094255;28;20129;-71
2023/12/07 06:34:46;;;;;;;5.95;4.30;;;;;;;0.58;89.50;101977.88;5092724;28;20032;-71
2023/12/07 06:37:12;;;;;;;6.47;4.50;;;;;;;0.81;88.44;101989.53;5092565;28;20043;-70
2023/12/07 06:39:37;;;;;;;5.82;4.28;;;;;;;0.78;88.28;101979.13;5093510;28;20463;-70
2023/12/07 06:42:03;;;;;;;5.55;4.18;;;;;;;0.58;89.42;101984.00;5092155;28;20032;-72
2023/12/07 06:44:28;;;;;;;6.10;4.65;;;;;;;0.54;89.54;101984.34;5093485;28;20024;-71
2023/12/07 06:46:54;;;;;;;5.57;4.30;;;;;;;0.63;89.12;101991.63;5092375;28;20053;-72
2023/12/07 06:49:19;;;;;;;7.35;4.65;;;;;;;0.54;88.87;101982.53;5092265;28;20032;-72
2023/12/07 06:51:44;;;;;;;6.97;4.72;;;;;;;0.69;88.77;102002.63;5092077;28;20028;-72
2023/12/07 06:54:10;;;;;;;8.15;4.43;;;;;;;0.69;88.79;101996.50;5092166;28;20035;-68
2023/12/07 06:56:35;;;;;;;6.50;4.20;;;;;;;0.60;88.15;101973.31;5091728;28;20035;-68
2023/12/07 06:59:01;;;;;;;5.88;4.20;;;;;;;0.86;87.75;101998.84;5092893;28;20044;-68
2023/12/07 07:01:26;;;;;;;5.28;4.30;;;;;;;0.64;87.45;101959.75;5091681;28;20515;-68
2023/12/07 07:03:51;;;;;;;7.40;4.82;;;;;;;0.77;87.68;102003.94;5091795;28;20089;-69
2023/12/07 07:06:17;;;;;;;6.22;4.50;;;;;;;0.73;87.69;102002.44;5093103;28;20028;-68
2023/12/07 07:08:42;;;;;;;5.78;4.32;;;;;;;0.55;88.43;102001.91;5093023;28;20032;-70
2023/12/07 07:11:14;;;;;;;6.80;4.40;;;;;;;0.58;89.04;102004.34;5093719;28;20119;-73
2023/12/07 07:13:40;;;;;;;5.53;4.13;;;;;;;0.55;88.71;102002.75;5092050;28;20080;-72
2023/12/07 07:16:08;;;;;;;6.70;4.47;;;;;;;0.62;89.26;102001.38;5092315;28;20032;-71
2023/12/07 07:18:35;;;;;;;5.57;4.13;;;;;;;0.59;88.91;102003.38;5091820;28;20032;-71
2023/12/07 07:21:00;;;;;;;7.15;4.47;;;;;;;0.53;89.06;102001.16;5093049;28;20039;-73
2023/12/07 07:23:26;;;;;;;6.78;4.07;;;;;;;0.51;89.33;102000.44;5091976;28;20030;-71
2023/12/07 07:25:51;;;;;;;7.70;5.20;;;;;;;0.36;88.98;101959.94;5091458;28;20115;-70
2023/12/07 07:28:17;;;;;;;7.25;4.85;;;;;;;0.60;89.03;102003.28;5092870;28;20028;-71
2023/12/07 07:30:43;;;;;;;5.70;4.65;;;;;;;0.62;89.07;102005.81;5092644;28;20032;-70
2023/12/07 07:33:08;;;;;;;6.00;4.53;;;;;;;0.81;88.15;102005.41;5091510;28;20081;-70
2023/12/07 07:35:34;;;;;;;7.70;4.80;;;;;;;0.66;88.21;102012.59;5093028;28;20073;-70
2023/12/07 07:37:59;;;;;;;8.25;3.92;;;;;;;0.59;88.20;102006.03;5074178;28;20176;-70
2023/12/07 07:40:24;;;;;;;7.07;4.38;;;;;;;0.73;88.35;102007.72;5092233;28;20032;-70
2023/12/07 07:42:50;;;;;;;8.80;5.38;;;;;;;0.72;88.58;102006.88;5074056;28;20055;-70
2023/12/07 07:45:16;;;;;;;7.72;5.13;;;;;;;0.90;86.91;101992.38;5074131;28;20403;-71
2023/12/07 07:47:41;;;;;;;7.10;4.53;;;;;;;0.90;87.36;102005.63;5091032;28;20085;-72
2023/12/07 07:50:07;;;;;;;8.15;5.28;;;;;;;0.93;86.92;102000.13;5090951;28;20028;-71
2023/12/07 07:52:33;;;;;;;6.65;4.68;;;;;;;0.85;86.60;101975.94;5092313;28;20431;-71
2023/12/07 07:55:03;;;;;;;6.38;4.68;;;;;;;0.97;86.47;101995.44;5092063;28;20089;-71
2023/12/07 07:57:30;;;;;;;4.68;3.88;;;;;;;0.79;87.32;102004.66;5090835;28;20355;-69
2023/12/07 07:59:56;;;;;;;6.53;3.95;;;;;;;0.83;87.35;101999.06;5091751;28;20105;-73
2023/12/07 08:02:21;;;;;;;6.13;4.38;;;;;;;0.60;88.23;101995.34;5091039;28;20028;-72
2023/12/07 08:04:47;;;;;;;7.43;4.35;;;;;;;0.33;89.14;101958.38;5091993;28;20106;-71
2023/12/07 08:07:12;;;;;;;4.50;3.38;;;;;;;0.29;89.81;101983.34;5092030;28;20444;-71
2023/12/07 08:09:38;;;;;;;5.88;4.22;;;;;;;0.57;89.35;101971.72;5092316;28;20479;-72
2023/12/07 08:12:04;;;;;;;5.95;4.38;;;;;;;0.82;88.07;101976.16;5073951;28;20043;-71
2023/12/07 08:14:29;;;;;;;5.85;4.53;;;;;;;0.66;88.41;101973.75;5091075;28;20028;-70
2023/12/07 08:16:55;;;;;;;5.60;4.15;;;;;;;0.74;88.47;101982.97;5092514;28;20028;-70
2023/12/07 08:19:21;;;;;;;6.70;4.53;;;;;;;1.15;86.74;101982.69;5091836;28;20093;-69
2023/12/07 08:21:46;;;;;;;7.80;4.45;;;;;;;1.06;86.39;101983.34;5090717;28;20502;-70
2023/12/07 08:24:12;;;;;;;5.95;4.30;;;;;;;0.76;88.40;101984.53;5090856;28;20043;-71
2023/12/07 08:26:38;;;;;;;5.35;4.40;;;;;;;0.79;88.54;101981.66;5073914;28;20122;-70
2023/12/07 08:29:03;;;;;;;7.28;4.30;;;;;;;1.13;87.08;101979.31;5090522;28;20463;-71
2023/12/07 08:31:29;;;;;;;5.65;4.28;;;;;;;1.00;87.78;101981.13;5091924;28;20028;-70
2023/12/07 08:33:55;;;;;;;6.60;4.28;;;;;;;0.85;88.77;101981.25;5092277;28;20363;-70
2023/12/07 08:36:20;;;;;;;8.45;5.10;;;;;;;1.03;87.88;101981.78;5089911;28;20024;-70
2023/12/07 08:38:46;;;;;;;5.32;3.88;;;;;;;1.04;87.75;101969.34;5089885;28;20030;-70
2023/12/07 08:41:11;;;;;;;6.13;3.90;;;;;;;0.97;87.92;101973.41;5089927;28;20064;-70
2023/12/07 08:43:36;;;;;;;7.13;4.35;;;;;;;0.79;88.44;101965.75;5090434;28;20036;-70
2023/12/07 08:46:03;;;;;;;5.15;3.88;;;;;;;0.84;88.78;101968.94;5091313;28;20115;-70
2023/12/07 08:48:29;;;;;;;5.07;3.53;;;;;;;0.84;88.65;101973.41;5089766;28;20387;-69
2023/12/07 08:50:54;;;;;;;5.88;4.05;;;;;;;0.69;89.22;101951.47;5089954;28;20067;-71
2023/12/07 08:53:20;;;;;;;5.82;4.35;;;;;;;0.87;88.90;101973.19;5089876;28;20028;-71
2023/12/07 08:55:45;;;;;;;5.85;3.97;;;;;;;0.70;88.73;101948.72;5091205;28;20035;-71
2023/12/07 08:58:10;;;;;;;6.28;4.20;;;;;;;0.92;88.63;101969.25;5090653;28;20499;-71
2023/12/07 09:00:37;;;;;;;6.15;4.45;;;;;;;0.67;89.01;101937.50;5091036;28;20039;-71
2023/12/07 09:03:02;;;;;;;6.10;4.20;;;;;;;1.03;87.95;101963.22;5091387;28;20076;-71
2023/12/07 09:05:28;;;;;;;6.07;4.40;;;;;;;1.10;87.90;101963.63;5089822;28;20035;-71
2023/12/07 09:07:54;;;;;;;6.75;4.60;;;;;;;1.12;87.73;101959.88;5089902;28;20031;-69
2023/12/07 09:10:20;;;;;;;6.47;4.72;;;;;;;1.14;87.68;101965.09;5089919;28;20363;-69
2023/12/07 09:12:45;;;;;;;5.50;4.00;;;;;;;1.24;87.22;101963.47;5091179;28;20047;-70
2023/12/07 09:15:12;;;;;;;5.65;4.10;;;;;;;1.10;87.31;101953.03;5089891;28;20118;-72
2023/12/07 09:17:38;;;;;;;6.22;4.03;;;;;;;1.27;87.04;101971.22;5089846;28;20398;-70
2023/12/07 09:20:12;;;;;;;5.55;4.13;;;;;;;1.53;86.41;101968.50;5089523;28;20036;-73
2023/12/07 09:22:46;;;;;;;6.20;4.50;;;;;;;1.50;85.75;101974.03;5091130;28;20024;-69
2023/12/07 09:25:12;;;;;;;;;;;;;;;1.34;86.12;101971.63;5090290;28;20032;-69
2023/12/07 09:27:39;;;;;;;5.88;4.20;;;;;;;1.35;86.05;101971.50;5089798;28;20002;-70
2023/12/07 09:30:11;;;;;;;6.72;4.68;;;;;;;1.59;85.19;101968.03;5089938;28;20024;-70
2023/12/07 09:32:39;;;;;;;6.45;4.55;;;;;;;1.59;85.25;101968.91;5090880;28;20034;-70
2023/12/07 09:35:06;;;;;;;6.68;4.70;;;;;;;1.61;85.35;101974.06;5090388;28;20024;-69
2023/12/07 09:37:32;;;;;;;5.75;4.55;;;;;;;1.78;84.58;101965.72;5090704;28;20074;-70
2023/12/07 09:39:57;;;;;;;5.63;4.38;;;;;;;1.78;84.64;101964.88;5089077;28;20503;-70
2023/12/07 09:42:23;;;;;;;5.80;4.28;;;;;;;1.62;84.40;101965.16;5071944;28;20044;-70
2023/12/07 09:44:48;;;;;;;5.07;4.43;;;;;;;1.69;84.63;101969.06;5055550;28;20081;-70
2023/12/07 09:47:14;;;;;;;7.53;4.50;;;;;;;1.65;84.53;101973.72;5089246;28;20067;-70
2023/12/07 09:49:40;;;;;;;7.82;4.55;;;;;;;1.78;84.03;101970.19;5090321;28;20024;-70
2023/12/07 09:52:07;;;;;;;6.35;4.50;;;;;;;1.94;83.79;101969.91;5090660;28;20036;-69
2023/12/07 09:54:35;;;;;;;6.15;4.47;;;;;;;2.03;82.91;101948.81;5091270;28;20032;-69
2023/12/07 09:57:01;;;;;;;6.68;4.70;;;;;;;1.79;83.01;101932.94;5094669;28;20031;-70
2023/12/07 09:59:27;;;;;;;6.68;4.75;;;;;;;1.81;82.88;101933.63;5094294;28;20514;-70
2023/12/07 10:01:52;;;;;;;7.90;4.82;;;;;;;1.75;83.75;101947.38;5093507;28;20063;-70
2023/12/07 10:04:20;;;;;;;6.53;4.32;;;;;;;1.88;83.13;101958.75;5093290;28;20067;-69
2023/12/07 10:06:47;;;;;;;6.22;4.88;;;;;;;1.82;83.61;101956.59;5075997;28;20028;-69
2023/12/07 10:09:13;;;;;;;5.78;4.50;;;;;;;1.79;84.16;101950.66;5094325;28;20065;-69
2023/12/07 10:11:38;;;;;;;7.13;4.43;;;;;;;1.80;83.45;101953.19;5093279;28;20119;-70
2023/12/07 10:14:07;;;;;;;5.57;4.30;;;;;;;1.80;83.66;101931.97;5094513;28;20170;-69
2023/12/07 10:16:35;;;;;;;5.40;4.22;;;;;;;1.83;83.92;101958.28;5094268;28;20035;-70
2023/12/07 10:19:17;;;;;;;5.28;4.38;;;;;;;1.98;83.03;101947.47;5093070;28;20024;-69
2023/12/07 10:21:43;;;;;;;6.95;4.63;;;;;;;1.96;83.47;101955.56;5093056;28;20545;-70
2023/12/07 10:24:09;;;;;;;6.68;4.60;;;;;;;1.68;84.15;101958.56;5093030;28;20039;-69
2023/12/07 10:26:36;;;;;;;5.68;4.28;;;;;;;1.91;83.68;101955.03;5093965;28;20490;-69
2023/12/07 10:29:05;;;;;;;5.65;4.10;;;;;;;1.92;83.61;101943.47;5094101;28;20039;-70
2023/12/07 10:31:31;;;;;;;6.30;4.40;;;;;;;1.96;83.58;101950.25;5076364;28;20102;-70
2023/12/07 10:33:56;;;;;;;6.72;4.50;;;;;;;1.98;83.65;101932.38;5094064;28;20099;-70
2023/12/07 10:36:22;;;;;;;5.45;4.13;;;;;;;2.02;83.01;101952.44;5092580;28;20055;-70
2023/12/07 10:38:50;;;;;;;6.78;4.63;;;;;;;1.76;84.22;101925.19;5093672;28;20028;-70
2023/12/07 10:41:18;;;;;;;4.68;3.65;;;;;;;1.82;84.63;101945.09;5075822;28;20069;-70
2023/12/07 10:43:47;;;;;;;6.50;4.03;;;;;;;1.89;84.71;101941.06;5092228;28;20032;-69
2023/12/07 10:46:16;;;;;;;6.00;4.38;;;;;;;1.81;84.39;101925.69;5093483;28;20050;-70
2023/12/07 10:48:44;;;;;;;6.78;4.40;;;;;;;1.76;nan;101924.34;5092142;28;20024;-70
2023/12/07 10:51:34;;;;;;;6.22;4.10;;;;;;;1.85;84.01;101931.59;5093535;28;20475;-70
2023/12/07 10:54:03;;;;;;;5.75;4.50;;;;;;;1.88;84.13;101937.53;5093011;28;20105;-70
2023/12/07 10:56:32;;;;;;;6.45;4.75;;;;;;;1.83;83.45;101947.66;5093362;28;20032;-70
2023/12/07 10:58:59;;;;;;;7.90;5.07;;;;;;;1.82;83.76;101947.75;5093183;28;20083;-70
2023/12/07 11:01:25;;;;;;;7.28;4.47;;;;;;;1.90;83.46;101952.50;5092379;28;20061;-70
2023/12/07 11:03:52;;;;;;;6.15;4.88;;;;;;;1.73;84.37;101951.13;5093612;28;20028;-69
2023/12/07 11:06:19;;;;;;;6.28;4.80;;;;;;;1.56;84.17;101924.03;5093502;28;20028;-70
2023/12/07 11:08:56;;;;;;;6.07;4.35;;;;;;;1.63;84.88;101954.44;5098534;28;20020;-70
2023/12/07 11:11:33;;;;;;;7.15;4.85;;;;;;;1.66;84.62;101953.38;5100197;28;20028;-70
2023/12/07 11:14:02;;;;;;;6.22;4.50;;;;;;;1.69;84.29;101931.91;5094073;28;20474;-72
2023/12/07 11:16:32;;;;;;;5.82;4.43;;;;;;;1.98;83.12;101952.78;5094251;28;20122;-70
2023/12/07 11:19:00;;;;;;;5.43;4.65;;;;;;;1.81;83.64;101962.00;5093750;28;20028;-71
2023/12/07 11:21:25;;;;;;;10.43;5.70;;;;;;;1.67;83.82;101939.13;5075453;28;20105;-73
2023/12/07 11:23:53;;;;;;;6.88;4.43;;;;;;;1.63;84.03;101957.09;5093713;28;20475;-73
2023/12/07 11:26:22;;;;;;;7.75;4.80;;;;;;;1.93;83.44;101957.59;5093859;28;20034;-70
2023/12/07 11:28:47;;;;;;;7.57;4.97;;;;;;;1.86;83.67;101960.69;5091758;28;20100;-73